createdAt,value
2022-11-03T00:01:02.064Z,7.82
2022-11-03T00:04:06.300Z,7.82
2022-11-03T00:07:08.910Z,7.40
2022-11-03T00:10:11.743Z,7.70
2022-11-03T00:13:14.294Z,8.23
2022-11-03T00:16:17.384Z,7.50
2022-11-03T00:19:20.219Z,7.53
2022-11-03T00:22:23.099Z,7.30
2022-11-03T00:25:25.615Z,8.00
2022-11-03T00:28:31.373Z,7.82
2022-11-03T00:31:35.931Z,7.50
2022-11-03T00:34:38.751Z,8.63
2022-11-03T00:37:41.281Z,7.80
2022-11-03T00:40:44.061Z,7.50
2022-11-03T00:43:47.388Z,7.55
2022-11-03T00:46:50.205Z,7.28
2022-11-03T00:49:52.773Z,7.68
2022-11-03T00:52:55.612Z,7.68
2022-11-03T00:55:58.354Z,7.50
2022-11-03T00:59:02.848Z,7.50
2022-11-03T01:02:05.651Z,7.43
2022-11-03T01:05:27.489Z,7.60
2022-11-03T01:08:34.248Z,7.60
2022-11-03T01:11:46.007Z,7.53
2022-11-03T01:14:53.055Z,7.20
2022-11-03T01:17:55.974Z,7.20
2022-11-03T01:20:58.593Z,7.47
2022-11-03T01:24:02.985Z,7.62
2022-11-03T01:27:05.671Z,8.10
2022-11-03T01:30:08.881Z,7.57
2022-11-03T01:33:11.662Z,7.55
2022-11-03T01:36:18.156Z,8.30
2022-11-03T01:39:20.840Z,8.38
2022-11-03T01:42:23.781Z,8.55
2022-11-03T01:45:26.436Z,8.18
2022-11-03T01:48:30.499Z,9.10
2022-11-03T01:51:35.131Z,7.80
2022-11-03T01:54:39.663Z,8.23
2022-11-03T01:58:01.272Z,7.93
2022-11-03T02:01:04.483Z,7.93
2022-11-03T02:04:20.716Z,8.48
2022-11-03T02:07:43.184Z,8.43
2022-11-03T02:10:50.705Z,7.50
2022-11-03T02:13:53.697Z,8.20
2022-11-03T02:17:02.150Z,8.40
2022-11-03T02:20:11.254Z,8.15
2022-11-03T02:23:32.309Z,8.23
2022-11-03T02:26:36.005Z,8.45
2022-11-03T02:29:38.736Z,9.50
2022-11-03T02:33:06.562Z,8.75
2022-11-03T02:36:30.327Z,8.10
2022-11-03T02:39:40.694Z,8.05
2022-11-03T02:42:47.807Z,8.38
2022-11-03T02:45:52.797Z,8.65
2022-11-03T02:48:57.307Z,8.63
2022-11-03T02:52:05.448Z,8.40
2022-11-03T02:55:30.771Z,8.30
2022-11-03T02:59:07.077Z,9.07
2022-11-03T03:02:12.870Z,7.95
2022-11-03T03:05:19.133Z,7.53
2022-11-03T03:08:24.864Z,8.50
2022-11-03T03:11:37.866Z,7.85
2022-11-03T03:14:44.595Z,8.35
2022-11-03T03:18:11.035Z,8.27
2022-11-03T03:21:21.699Z,7.93
2022-11-03T03:24:33.580Z,8.55
2022-11-03T03:27:39.307Z,8.77
2022-11-03T03:30:45.048Z,8.68
2022-11-03T03:33:53.306Z,8.73
2022-11-03T03:37:00.026Z,9.00
2022-11-03T03:40:07.690Z,8.40
2022-11-03T03:43:13.862Z,8.15
2022-11-03T03:46:18.600Z,8.50
2022-11-03T03:49:21.732Z,8.27
2022-11-03T03:52:25.293Z,8.10
2022-11-03T03:55:37.627Z,7.93
2022-11-03T03:58:40.541Z,7.82
2022-11-03T04:01:43.645Z,7.37
2022-11-03T04:04:46.608Z,8.18
2022-11-03T04:07:49.286Z,8.35
2022-11-03T04:11:10.589Z,8.18
2022-11-03T04:14:31.340Z,7.90
2022-11-03T04:17:52.959Z,7.37
2022-11-03T04:21:14.502Z,7.43
2022-11-03T04:24:17.368Z,8.68
2022-11-03T04:27:33.371Z,8.65
2022-11-03T04:30:37.540Z,7.93
2022-11-03T04:33:41.763Z,7.05
2022-11-03T04:36:44.701Z,7.78
2022-11-03T04:39:47.543Z,8.07
2022-11-03T04:42:50.890Z,7.80
2022-11-03T04:45:53.509Z,7.50
2022-11-03T04:49:01.962Z,8.55
2022-11-03T04:52:21.869Z,8.25
2022-11-03T04:55:25.329Z,7.95
2022-11-03T04:58:34.838Z,8.35
2022-11-03T05:01:37.787Z,7.80
2022-11-03T05:04:42.347Z,8.65
2022-11-03T05:07:51.262Z,8.43
2022-11-03T05:10:54.181Z,7.97
2022-11-03T05:14:01.527Z,8.23
2022-11-03T05:17:16.046Z,8.15
2022-11-03T05:20:35.797Z,7.93
2022-11-03T05:23:41.255Z,7.80
2022-11-03T05:26:44.360Z,8.02
2022-11-03T05:29:48.071Z,8.90
2022-11-03T05:32:51.033Z,8.05
2022-11-03T05:35:55.724Z,9.20
2022-11-03T05:39:17.216Z,9.07
2022-11-03T05:42:22.560Z,8.68
2022-11-03T05:45:37.226Z,9.13
2022-11-03T05:48:44.026Z,8.82
2022-11-03T05:51:47.674Z,10.02
2022-11-03T05:54:50.705Z,9.30
2022-11-03T05:57:59.073Z,8.63
2022-11-03T06:01:07.249Z,9.45
2022-11-03T06:04:26.759Z,9.43
2022-11-03T06:07:31.896Z,9.27
2022-11-03T06:10:39.850Z,9.13
2022-11-03T06:13:42.608Z,9.40
2022-11-03T06:16:49.560Z,9.30
2022-11-03T06:19:58.659Z,8.20
2022-11-03T06:23:02.287Z,8.05
2022-11-03T06:26:27.249Z,9.13
2022-11-03T06:29:33.599Z,8.98
2022-11-03T06:32:36.535Z,9.15
2022-11-03T06:35:39.652Z,9.73
2022-11-03T06:38:42.291Z,8.23
2022-11-03T06:41:45.197Z,9.50
2022-11-03T06:44:50.020Z,9.18
2022-11-03T06:47:53.807Z,8.05
2022-11-03T06:50:58.279Z,8.02
2022-11-03T06:54:01.550Z,8.13
2022-11-03T06:57:11.802Z,7.32
2022-11-03T07:00:41.140Z,7.25
2022-11-03T07:03:44.833Z,7.05
2022-11-03T07:06:53.024Z,6.03
2022-11-03T07:09:56.348Z,6.68
2022-11-03T07:13:13.926Z,6.60
2022-11-03T07:16:27.704Z,6.55
2022-11-03T07:19:35.146Z,6.43
2022-11-03T07:22:37.748Z,6.85
2022-11-03T07:25:40.868Z,6.68
2022-11-03T07:28:43.594Z,5.53
2022-11-03T07:31:46.675Z,5.93
2022-11-03T07:34:52.730Z,6.43
2022-11-03T07:37:58.083Z,6.90
2022-11-03T07:41:01.192Z,7.07
2022-11-03T07:44:06.034Z,7.25
2022-11-03T07:47:16.021Z,8.35
2022-11-03T07:50:20.367Z,8.20
2022-11-03T08:00:46.648Z,9.23
2022-11-03T08:03:50.605Z,9.98
2022-11-03T08:06:53.295Z,9.43
2022-11-03T08:09:56.489Z,10.35
2022-11-03T08:12:59.128Z,10.80
2022-11-03T08:16:02.211Z,9.05
2022-11-03T08:19:05.661Z,11.18
2022-11-03T08:22:09.034Z,8.77
2022-11-03T08:25:11.662Z,11.27
2022-11-03T08:28:15.329Z,11.27
2022-11-03T08:31:18.272Z,12.25
2022-11-03T08:34:21.213Z,12.52
2022-11-03T08:37:23.849Z,13.05
2022-11-03T08:40:26.777Z,13.13
2022-11-03T08:43:30.046Z,12.43
2022-11-03T08:46:32.970Z,12.23
2022-11-03T08:49:35.675Z,12.90
2022-11-03T08:52:38.753Z,13.18
2022-11-03T08:55:41.365Z,13.20
2022-11-03T08:58:44.323Z,14.15
2022-11-03T09:01:47.275Z,10.55
2022-11-03T09:04:50.292Z,14.80
2022-11-03T09:11:16.216Z,13.48
2022-11-03T09:14:18.883Z,14.32
2022-11-03T09:17:21.963Z,12.80
2022-11-03T09:20:24.590Z,12.63
2022-11-03T09:23:27.465Z,11.88
2022-11-03T09:26:30.033Z,12.63
2022-11-03T09:29:58.397Z,10.65
2022-11-03T09:32:55.888Z,12.10
2022-11-03T09:35:58.899Z,12.00
2022-11-03T09:39:01.666Z,13.57
2022-11-03T09:42:05.388Z,10.48
2022-11-03T09:45:09.644Z,12.20
2022-11-03T09:48:13.185Z,11.68
2022-11-03T09:51:20.827Z,11.73
2022-11-03T09:54:24.177Z,11.30
2022-11-03T09:57:28.239Z,12.93
2022-11-03T10:00:31.494Z,11.82
2022-11-03T10:03:35.620Z,12.32
2022-11-03T10:06:39.291Z,12.88
2022-11-03T10:09:46.712Z,13.30
2022-11-03T10:12:53.623Z,12.55
2022-11-03T10:15:58.589Z,13.25
2022-11-03T10:19:01.311Z,11.75
2022-11-03T10:22:04.303Z,13.25
2022-11-03T10:25:33.643Z,14.10
2022-11-03T10:28:37.388Z,13.20
2022-11-03T10:31:41.818Z,13.10
2022-11-03T10:34:44.726Z,13.18
2022-11-03T10:37:47.412Z,14.40
2022-11-03T10:40:50.699Z,11.88
2022-11-03T10:44:05.648Z,14.20
2022-11-03T10:47:40.107Z,14.43
2022-11-03T10:50:42.825Z,12.95
2022-11-03T10:53:45.770Z,13.30
2022-11-03T10:56:50.859Z,14.82
2022-11-03T11:40:35.540Z,14.45
2022-11-03T11:43:38.957Z,14.20
2022-11-03T11:46:44.541Z,16.73
2022-11-03T11:49:47.664Z,13.55
2022-11-03T11:53:05.292Z,13.02
2022-11-03T11:56:14.133Z,14.85
2022-11-03T11:59:24.642Z,16.65
2022-11-03T12:02:31.212Z,14.25
2022-11-03T12:05:35.970Z,12.13
2022-11-03T12:08:38.702Z,13.93
2022-11-03T12:11:49.058Z,15.77
2022-11-03T12:14:52.785Z,18.30
2022-11-03T12:17:55.665Z,17.33
2022-11-03T12:20:58.304Z,16.00
2022-11-03T12:24:01.230Z,15.07
2022-11-03T12:27:17.994Z,15.52
2022-11-03T12:30:21.017Z,17.23
2022-11-03T12:33:23.663Z,18.52
2022-11-03T12:36:26.619Z,17.08
2022-11-03T12:39:29.691Z,15.60
2022-11-03T12:42:32.997Z,17.92
2022-11-03T12:45:35.717Z,18.83
2022-11-03T12:48:43.878Z,19.27
2022-11-03T12:51:46.714Z,18.58
2022-11-03T12:54:49.873Z,16.52
2022-11-03T12:57:55.610Z,17.62
2022-11-03T13:01:13.721Z,17.12
2022-11-03T13:04:18.364Z,15.43
2022-11-03T13:07:26.774Z,17.87
2022-11-03T13:10:33.284Z,16.08
2022-11-03T13:13:36.835Z,16.92
2022-11-03T13:16:39.876Z,18.85
2022-11-03T13:19:45.756Z,17.48
2022-11-03T13:22:48.739Z,17.55
2022-11-03T13:25:52.305Z,19.52
2022-11-03T13:28:55.111Z,13.60
2022-11-03T13:31:58.478Z,15.73
2022-11-03T13:35:01.902Z,15.25
2022-11-03T13:38:05.157Z,14.93
2022-11-03T14:18:07.743Z,17.60
2022-11-03T14:21:10.763Z,16.90
2022-11-03T14:24:13.382Z,14.77
2022-11-03T14:27:18.387Z,14.27
2022-11-03T14:30:25.770Z,18.05
2022-11-03T14:33:28.819Z,17.62
2022-11-03T14:36:31.548Z,16.77
2022-11-03T14:39:54.708Z,16.67
2022-11-03T14:42:57.414Z,15.57
2022-11-03T14:46:00.440Z,16.80
2022-11-03T14:49:04.729Z,15.90
2022-11-03T14:52:08.312Z,18.12
2022-11-03T14:55:11.081Z,17.25
2022-11-03T14:58:14.137Z,17.10
2022-11-03T15:01:18.255Z,17.55
2022-11-03T15:04:23.181Z,17.17
2022-11-03T15:07:25.927Z,15.15
2022-11-03T15:10:28.960Z,18.45
2022-11-03T15:13:31.901Z,16.27
2022-11-03T15:16:36.329Z,13.82
2022-11-03T15:19:39.153Z,12.05
2022-11-03T15:26:05.474Z,13.48
2022-11-03T15:29:08.563Z,11.63
2022-11-03T15:32:11.277Z,15.57
2022-11-03T15:35:14.533Z,14.48
2022-11-03T15:38:17.287Z,11.70
2022-11-03T15:41:20.961Z,15.63
2022-11-03T15:44:23.740Z,12.13
2022-11-03T15:47:26.815Z,11.23
2022-11-03T15:50:30.443Z,15.75
2022-11-03T15:53:34.379Z,15.27
2022-11-03T15:56:37.074Z,16.55
2022-11-03T15:59:40.268Z,17.12
2022-11-03T16:02:43.139Z,18.12
2022-11-03T16:05:46.499Z,16.60
2022-11-03T16:09:09.182Z,14.18
2022-11-03T16:12:13.121Z,12.35
2022-11-03T16:15:35.734Z,17.65
2022-11-03T16:18:39.114Z,18.33
2022-11-03T16:21:42.060Z,16.00
2022-11-03T16:24:46.577Z,15.80
2022-11-03T16:27:49.640Z,15.48
2022-11-03T16:30:55.614Z,16.15
2022-11-03T16:33:59.244Z,16.30
2022-11-03T16:37:02.836Z,14.07
2022-11-03T16:40:06.927Z,15.23
2022-11-03T16:43:14.698Z,13.35
2022-11-03T16:46:17.654Z,16.95
2022-11-03T16:49:20.888Z,16.52
2022-11-03T16:52:23.839Z,13.90
2022-11-03T16:55:26.997Z,18.15
2022-11-03T16:58:30.236Z,9.93
2022-11-03T17:01:35.121Z,15.18
2022-11-03T17:04:38.257Z,16.83
2022-11-03T17:07:41.565Z,13.55
2022-11-03T17:10:45.598Z,13.60
2022-11-03T17:13:48.760Z,16.05
2022-11-03T17:16:52.162Z,15.93
2022-11-03T17:19:56.535Z,16.60
2022-11-03T17:22:59.589Z,15.70
2022-11-03T17:26:03.532Z,15.10
2022-11-03T17:29:16.048Z,16.40
2022-11-03T17:32:36.657Z,15.25
2022-11-03T17:35:42.703Z,18.33
2022-11-03T17:49:47.728Z,17.55
2022-11-03T17:52:53.807Z,14.93
2022-11-03T17:59:22.127Z,15.05
2022-11-03T18:02:28.095Z,16.33
2022-11-03T18:05:33.008Z,16.30
2022-11-03T18:08:36.540Z,15.15
2022-11-03T18:12:01.118Z,15.13
2022-11-03T18:15:07.203Z,16.23
2022-11-03T18:18:15.348Z,14.87
2022-11-03T18:21:20.691Z,16.37
2022-11-03T18:24:26.852Z,17.17
2022-11-03T18:27:29.930Z,17.67
2022-11-03T18:30:34.277Z,16.12
2022-11-03T18:33:37.387Z,18.35
2022-11-03T18:36:40.673Z,17.02
2022-11-03T18:39:43.685Z,16.65
2022-11-03T18:42:46.951Z,18.60
2022-11-03T18:45:50.849Z,18.92
2022-11-03T18:48:54.753Z,17.80
2022-11-03T18:52:04.608Z,17.65
2022-11-03T18:55:13.276Z,18.45
2022-11-03T18:58:20.746Z,17.95
2022-11-03T19:01:26.558Z,18.55
2022-11-03T19:04:32.082Z,16.35
2022-11-03T19:07:36.018Z,20.05
2022-11-03T19:10:40.344Z,19.45
2022-11-03T19:13:47.462Z,18.83
2022-11-03T19:17:25.005Z,15.23
2022-11-03T19:20:19.673Z,19.02
2022-11-03T19:23:23.123Z,18.48
2022-11-03T19:26:30.152Z,20.67
2022-11-03T19:29:38.443Z,20.23
2022-11-03T19:32:45.999Z,20.45
2022-11-03T19:35:50.175Z,20.12
2022-11-03T19:38:55.103Z,20.45
2022-11-03T19:42:20.721Z,20.73
2022-11-03T19:45:24.448Z,18.42
2022-11-03T19:48:32.361Z,20.90
2022-11-03T19:51:38.836Z,19.58
2022-11-03T19:54:50.222Z,21.40
2022-11-03T19:57:54.131Z,21.23
2022-11-03T20:00:57.607Z,19.65
2022-11-03T20:04:02.261Z,19.15
2022-11-03T20:07:06.756Z,17.17
2022-11-03T20:10:16.424Z,21.02
2022-11-03T20:13:23.640Z,21.55
2022-11-03T20:16:29.974Z,19.02
2022-11-03T20:19:34.292Z,21.23
2022-11-03T20:22:40.254Z,22.02
2022-11-03T20:25:43.265Z,21.15
2022-11-03T20:28:46.904Z,22.50
2022-11-03T20:31:53.465Z,20.37
2022-11-03T20:34:56.844Z,20.20
2022-11-03T20:38:14.985Z,19.17
2022-11-03T20:41:18.308Z,20.33
2022-11-03T20:44:21.620Z,21.25
2022-11-03T20:47:25.036Z,21.15
2022-11-03T20:50:30.767Z,18.17
2022-11-03T20:53:34.534Z,21.12
2022-11-03T20:56:37.546Z,19.95
2022-11-03T20:59:41.873Z,20.25
2022-11-03T21:02:46.171Z,18.90
2022-11-03T21:05:49.395Z,14.55
2022-11-03T21:08:52.653Z,15.40
2022-11-03T21:11:55.883Z,17.27
2022-11-03T21:15:17.397Z,20.12
2022-11-03T21:18:39.324Z,14.18
2022-11-03T21:21:42.097Z,11.98
2022-11-03T21:24:45.116Z,18.67
2022-11-03T21:27:49.794Z,19.80
2022-11-03T21:30:55.450Z,17.70
2022-11-03T21:33:58.191Z,18.77
2022-11-03T21:37:01.361Z,18.23
2022-11-03T21:40:04.547Z,18.12
2022-11-03T21:43:31.319Z,15.45
2022-11-03T21:46:34.160Z,15.77
2022-11-03T21:49:43.170Z,18.80
2022-11-03T21:52:57.974Z,17.20
2022-11-03T21:56:01.000Z,16.08
2022-11-03T21:59:04.348Z,17.25
2022-11-03T22:02:12.086Z,16.62
2022-11-03T22:05:15.090Z,16.37
2022-11-03T22:08:17.862Z,15.43
2022-11-03T22:11:23.700Z,16.60
2022-11-03T22:14:49.215Z,15.68
2022-11-03T22:17:52.169Z,14.10
2022-11-03T22:21:16.502Z,15.57
2022-11-03T22:24:38.343Z,14.93
2022-11-03T22:27:41.007Z,15.75
2022-11-03T22:31:02.716Z,14.75
2022-11-03T22:34:23.943Z,13.15
2022-11-03T22:37:26.922Z,14.32
2022-11-03T22:40:48.574Z,14.75
2022-11-03T22:44:10.380Z,13.45
2022-11-03T22:47:14.607Z,13.27
2022-11-03T22:50:20.735Z,13.73
2022-11-03T22:53:41.880Z,14.20
2022-11-03T22:56:44.958Z,12.55
2022-11-03T22:59:47.633Z,13.62
2022-11-03T23:02:53.924Z,12.37
2022-11-03T23:06:00.379Z,12.77
2022-11-03T23:09:03.827Z,12.55
2022-11-03T23:12:06.596Z,14.93
2022-11-03T23:15:28.120Z,12.65
2022-11-03T23:18:49.514Z,13.05
2022-11-03T23:21:53.547Z,12.43
2022-11-03T23:25:02.197Z,13.30
2022-11-03T23:28:05.293Z,13.20
2022-11-03T23:31:08.617Z,13.32
2022-11-03T23:34:13.107Z,13.13
2022-11-03T23:37:22.179Z,12.73
2022-11-03T23:40:25.432Z,13.25
2022-11-03T23:43:28.071Z,13.10
2022-11-03T23:46:49.539Z,13.62
2022-11-03T23:49:52.170Z,13.30
2022-11-03T23:52:55.105Z,15.57
